Time;durP1;ratioP1;P1;durP2;ratioP2;P2;SDS_P1;SDS_P2;PMS_P1;PMS_P2;Temp;Humidity;BMP_temperature;BMP_pressure;BME280_temperature;BME280_humidity;BME280_pressure;Samples;Min_cycle;Max_cycle;Signal;HPM_P1;HPM_P2
2021/01/13 00:00:08;;;;;;;15.25;8.93;;;;;;;0.04;94.01;95067.06;5010451;28;20037;-62
2021/01/13 00:02:33;;;;;;;23.08;14.75;;;;;;;0.43;93.69;95097.47;5030622;28;20030;-62
2021/01/13 00:04:59;;;;;;;14.88;9.82;;;;;;;0.38;92.49;95088.75;5014525;28;20095;-62
2021/01/13 00:07:24;;;;;;;29.45;16.83;;;;;;;0.53;92.19;95088.97;5032274;28;20515;-63
2021/01/13 00:09:49;;;;;;;20.85;14.10;;;;;;;0.39;92.76;95088.50;5014383;28;20083;-62
2021/01/13 00:12:15;;;;;;;29.92;15.82;;;;;;;0.23;92.47;95077.03;5016175;28;20022;-63
2021/01/13 00:14:42;;;;;;;30.70;16.60;;;;;;;0.23;91.52;95073.63;5032201;28;20140;-62
2021/01/13 00:17:08;;;;;;;21.17;13.25;;;;;;;0.25;91.67;95106.34;5031961;28;20562;-63
2021/01/13 00:19:33;;;;;;;26.42;16.23;;;;;;;-0.09;92.49;95083.91;5003933;28;20096;-62
2021/01/13 00:21:58;;;;;;;28.67;17.67;;;;;;;0.05;92.09;95116.50;5011998;28;20099;-62
2021/01/13 00:24:24;;;;;;;24.58;15.77;;;;;;;-0.10;92.70;95090.94;5012232;28;20030;-62
2021/01/13 00:26:54;;;;;;;19.98;12.68;;;;;;;-0.21;92.86;95110.09;5014202;28;20103;-62
2021/01/13 00:29:20;;;;;;;23.42;15.55;;;;;;;-0.11;93.15;95102.41;5011820;28;20034;-61
2021/01/13 00:31:46;;;;;;;37.15;18.17;;;;;;;-0.07;92.68;95098.31;5011904;28;20049;-61
2021/01/13 00:34:13;;;;;;;26.98;14.20;;;;;;;-0.11;93.35;95112.88;5012132;28;20447;-62
2021/01/13 00:36:38;;;;;;;34.75;18.02;;;;;;;-0.22;93.50;95092.03;5011982;28;20041;-62
2021/01/13 00:39:05;;;;;;;43.50;20.20;;;;;;;0.01;92.40;95110.19;5013664;28;20029;-62
2021/01/13 00:41:31;;;;;;;28.15;13.73;;;;;;;-0.20;93.00;95114.31;5011686;28;20042;-63
2021/01/13 00:43:56;;;;;;;39.83;20.92;;;;;;;-0.01;92.54;95115.66;5011903;28;20044;-63
2021/01/13 00:46:22;;;;;;;42.63;21.15;;;;;;;-0.23;93.11;95104.31;5011952;28;20121;-64
2021/01/13 00:48:48;;;;;;;42.50;18.73;;;;;;;-0.07;92.06;95126.28;5011640;28;20133;-63
2021/01/13 00:51:13;;;;;;;40.53;19.75;;;;;;;-0.33;92.96;95125.06;5013498;28;20547;-62
2021/01/13 00:53:39;;;;;;;31.40;17.60;;;;;;;-0.39;92.63;95133.84;5011453;28;20042;-62
2021/01/13 00:56:05;;;;;;;34.80;17.25;;;;;;;-0.24;92.37;95155.03;5011460;28;20041;-62
2021/01/13 00:58:31;;;;;;;32.70;16.25;;;;;;;-0.36;92.71;95147.25;5011225;28;20041;-63
2021/01/13 01:00:57;;;;;;;37.30;16.63;;;;;;;-0.28;92.00;95139.00;5011788;28;20404;-63
2021/01/13 01:03:23;;;;;;;33.03;18.45;;;;;;;-0.34;92.46;95139.16;5011151;28;20026;-63
2021/01/13 01:05:49;;;;;;;33.13;17.15;;;;;;;-0.48;92.83;95143.09;5012056;28;20094;-62
2021/01/13 01:08:15;;;;;;;35.58;17.08;;;;;;;-0.36;92.21;95144.63;5009872;28;20072;-63
2021/01/13 01:10:41;;;;;;;41.13;19.02;;;;;;;-0.50;92.80;95130.25;5011505;28;20054;-62
2021/01/13 01:13:07;;;;;;;34.42;17.95;;;;;;;-0.68;93.04;95099.88;5009917;28;20038;-62
2021/01/13 01:15:35;;;;;;;33.05;14.48;;;;;;;-0.76;92.64;95100.28;5011208;28;20037;-63
2021/01/13 01:18:01;;;;;;;33.58;15.45;;;;;;;-0.41;93.51;95164.63;5011782;28;20464;-62
2021/01/13 01:20:26;;;;;;;37.97;18.63;;;;;;;-0.59;92.61;95137.69;5011040;28;20037;-63
2021/01/13 01:22:56;;;;;;;29.48;17.23;;;;;;;-0.50;92.52;95139.94;5009437;28;20668;-62
2021/01/13 01:25:22;;;;;;;34.90;15.65;;;;;;;-0.76;92.38;95113.34;5011163;28;20033;-61
2021/01/13 01:27:53;;;;;;;28.08;16.98;;;;;;;-0.55;91.48;95143.25;5009620;28;20046;-64
2021/01/13 01:30:19;;;;;;;29.48;16.42;;;;;;;-0.49;91.93;95136.28;5010890;28;20022;-63
2021/01/13 01:32:44;;;;;;;28.90;16.17;;;;;;;-0.40;91.70;95163.63;5011399;28;20033;-64
2021/01/13 01:35:10;;;;;;;29.83;15.13;;;;;;;-0.68;92.43;95133.84;5010804;28;20488;-64
2021/01/13 01:37:36;;;;;;;25.17;14.43;;;;;;;-0.64;92.73;95163.72;5009536;28;20042;-63
2021/01/13 01:40:04;;;;;;;25.95;13.88;;;;;;;-0.64;93.07;95168.16;4992875;28;20458;-62
2021/01/13 01:42:29;;;;;;;30.75;15.88;;;;;;;-0.58;92.13;95172.44;5010561;28;20018;-63
2021/01/13 01:44:55;;;;;;;28.30;15.13;;;;;;;-0.74;92.33;95163.50;5011427;28;20033;-62
2021/01/13 01:47:40;;;;;;;21.42;10.55;;;;;;;-0.74;92.21;95184.41;5010801;28;20069;-63
2021/01/13 01:50:06;;;;;;;24.50;13.45;;;;;;;-1.33;92.22;95080.16;5010497;28;20262;-62
2021/01/13 01:52:31;;;;;;;29.35;13.85;;;;;;;-0.84;92.44;95176.38;5010296;28;20045;-63
2021/01/13 01:55:02;;;;;;;19.45;10.32;;;;;;;-0.84;92.40;95181.59;5010702;28;20034;-63
2021/01/13 01:57:34;;;;;;;16.50;10.95;;;;;;;-0.86;92.71;95175.81;5010496;28;20045;-63
2021/01/13 02:00:01;;;;;;;18.60;12.40;;;;;;;-0.86;92.58;95174.00;5012205;28;20075;-63
2021/01/13 02:02:36;;;;;;;17.50;10.65;;;;;;;-0.95;92.64;95179.81;5008778;28;20038;-62
2021/01/13 02:05:02;;;;;;;16.73;9.82;;;;;;;-1.20;92.02;95154.78;5010285;28;20053;-62
2021/01/13 02:07:30;;;;;;;16.27;10.25;;;;;;;-0.89;91.64;95191.94;5009136;28;20038;-62
2021/01/13 02:09:56;;;;;;;13.10;9.07;;;;;;;-1.20;91.60;95162.59;5008713;28;20083;-63
2021/01/13 02:12:29;;;;;;;17.85;9.13;;;;;;;-1.14;91.58;95166.91;5008691;28;20108;-63
2021/01/13 02:14:56;;;;;;;16.40;10.82;;;;;;;-0.98;91.79;95181.06;5012171;28;20079;-62
2021/01/13 02:17:29;;;;;;;16.55;10.85;;;;;;;-0.95;91.75;95204.09;5010259;28;20487;-63
2021/01/13 02:19:56;;;;;;;;;;;;;;;-0.76;91.42;95209.97;5010915;28;20038;-61
2021/01/13 02:22:26;;;;;;;16.55;9.63;;;;;;;-0.81;91.05;95208.06;5010173;28;20387;-63
2021/01/13 02:25:13;;;;;;;13.43;8.93;;;;;;;-0.89;91.11;95211.00;5009823;28;20058;-63
2021/01/13 02:28:12;;;;;;;14.85;9.13;;;;;;;-0.70;91.01;95209.03;5010008;28;20084;-64
2021/01/13 02:31:22;;;;;;;19.50;9.00;;;;;;;-0.80;90.30;95216.69;5009910;28;20030;-63
2021/01/13 02:33:53;;;;;;;12.85;9.15;;;;;;;-0.76;90.22;95209.19;5010065;28;20141;-64
2021/01/13 02:36:20;;;;;;;14.93;9.73;;;;;;;-0.86;90.34;95192.28;5009869;28;20123;-63
2021/01/13 02:38:52;;;;;;;16.92;9.05;;;;;;;-0.81;89.89;95196.81;5011422;28;20033;-64
2021/01/13 02:41:19;;;;;;;12.52;9.63;;;;;;;-0.68;89.23;95201.75;5009144;28;20038;-64
2021/01/13 02:43:56;;;;;;;11.88;7.22;;;;;;;-0.94;89.23;95195.25;5008327;28;20037;-65
2021/01/13 02:46:52;;;;;;;15.82;8.13;;;;;;;-0.71;88.98;95207.47;5009479;28;20056;-64
2021/01/13 02:49:28;;;;;;;20.17;9.85;;;;;;;-0.98;88.08;95181.06;5009462;28;20045;-64
2021/01/13 02:51:58;;;;;;;11.82;8.18;;;;;;;-0.87;88.11;95211.59;5009337;28;20046;-64
2021/01/13 02:54:32;;;;;;;13.15;9.25;;;;;;;-0.89;88.23;95215.44;5009343;28;20038;-64
2021/01/13 02:57:06;;;;;;;20.27;10.00;;;;;;;-0.73;87.60;95214.72;5011386;28;20026;-68
2021/01/13 02:59:35;;;;;;;16.90;8.65;;;;;;;-0.95;88.65;95222.38;5009291;28;20041;-64
2021/01/13 03:02:09;;;;;;;13.75;9.18;;;;;;;-1.00;88.52;95213.66;5009240;28;20573;-64
2021/01/13 03:04:35;;;;;;;13.48;8.65;;;;;;;-1.49;88.41;95147.88;5019871;28;20629;-64
2021/01/13 03:07:07;;;;;;;19.10;9.48;;;;;;;-1.00;89.01;95203.22;5028878;28;20124;-65
2021/01/13 03:09:35;;;;;;;13.85;9.25;;;;;;;-1.23;89.31;95177.91;5028750;28;20028;-65
2021/01/13 03:12:03;;;;;;;13.00;8.40;;;;;;;-1.14;89.89;95203.44;5030601;28;20021;-65
2021/01/13 03:14:34;;;;;;;11.43;7.03;;;;;;;-1.20;89.46;95214.00;5028137;28;20052;-64
2021/01/13 03:17:20;;;;;;;17.15;9.80;;;;;;;-1.13;89.54;95210.25;5027804;28;20037;-65
2021/01/13 03:20:00;;;;;;;11.15;7.45;;;;;;;-1.19;89.79;95223.41;5028637;28;20530;-65
2021/01/13 03:22:35;;;;;;;16.77;10.05;;;;;;;-1.13;89.33;95225.09;5028553;28;20041;-65
2021/01/13 03:25:04;;;;;;;17.23;10.13;;;;;;;-1.06;89.19;95217.97;5028755;28;20033;-64
2021/01/13 03:27:36;;;;;;;16.88;9.50;;;;;;;-0.99;89.14;95217.84;5028648;28;20391;-65
2021/01/13 03:30:04;;;;;;;17.63;10.45;;;;;;;-0.98;88.14;95212.38;5030426;28;20044;-65
2021/01/13 03:33:07;;;;;;;20.35;11.18;;;;;;;-0.99;88.66;95217.84;5028384;28;20049;-64
2021/01/13 03:35:44;;;;;;;17.00;8.85;;;;;;;-1.24;89.70;95202.44;5028048;28;20503;-65
2021/01/13 03:38:18;;;;;;;16.88;9.88;;;;;;;-1.29;89.13;95195.28;5028652;28;20049;-65
2021/01/13 03:40:45;;;;;;;13.43;8.43;;;;;;;-1.47;89.34;95183.16;5028616;28;20116;-65
2021/01/13 03:43:22;;;;;;;13.55;6.90;;;;;;;-1.41;89.91;95223.19;5010645;28;20084;-65
2021/01/13 03:45:53;;;;;;;18.02;9.18;;;;;;;-1.34;89.92;95213.44;5028498;28;20081;-65
2021/01/13 03:48:37;;;;;;;14.45;6.70;;;;;;;-1.40;90.39;95217.75;5028169;28;20096;-65
2021/01/13 03:51:03;;;;;;;15.20;7.40;;;;;;;-1.41;90.10;95221.38;5030429;28;20050;-65
2021/01/13 03:53:30;;;;;;;17.15;10.02;;;;;;;-1.36;90.06;95208.44;5028212;28;20118;-66
2021/01/13 03:55:57;;;;;;;22.10;10.55;;;;;;;-1.53;89.98;95183.28;5028379;28;20073;-65
2021/01/13 03:58:49;;;;;;;21.27;10.68;;;;;;;-1.24;89.71;95199.81;5010080;28;20088;-65
2021/01/13 04:01:23;;;;;;;20.90;9.73;;;;;;;-1.41;89.51;95213.56;5028033;28;20041;-65
2021/01/13 04:04:05;;;;;;;30.02;14.00;;;;;;;-1.15;89.05;95214.91;5028236;28;20438;-66
2021/01/13 04:06:41;;;;;;;21.88;10.55;;;;;;;-1.36;89.76;95207.66;5028348;28;20022;-65
2021/01/13 04:09:09;;;;;;;26.63;13.85;;;;;;;-1.30;89.07;95225.00;5012218;28;20033;-64
2021/01/13 04:11:35;;;;;;;20.73;10.13;;;;;;;-1.53;89.80;95207.56;5027867;28;20403;-65
2021/01/13 04:14:03;;;;;;;27.38;13.27;;;;;;;-1.49;89.46;95187.00;5028271;28;20038;-66
2021/01/13 04:16:35;;;;;;;21.40;11.23;;;;;;;-1.25;89.74;95219.13;5028317;28;20030;-65
2021/01/13 04:19:01;;;;;;;26.67;12.30;;;;;;;-1.62;89.17;95154.91;5027993;28;20483;-66
2021/01/13 04:21:26;;;;;;;27.98;11.65;;;;;;;-1.40;89.13;95206.53;5027903;28;20047;-65
2021/01/13 04:23:57;;;;;;;16.95;9.77;;;;;;;-1.23;88.93;95225.69;5029725;28;20022;-65
2021/01/13 04:26:23;;;;;;;16.65;8.82;;;;;;;-1.24;88.73;95229.31;5028038;28;20064;-65
2021/01/13 04:28:49;;;;;;;23.10;12.13;;;;;;;-1.35;88.15;95201.41;5027690;28;20073;-65
2021/01/13 04:31:14;;;;;;;25.88;12.65;;;;;;;-1.16;88.46;95230.81;5027504;28;20038;-64
2021/01/13 04:33:40;;;;;;;21.98;12.55;;;;;;;-1.71;88.35;95145.06;5027879;28;20105;-64
2021/01/13 04:36:06;;;;;;;28.80;11.60;;;;;;;-1.09;87.90;95236.69;5029875;28;20029;-65
2021/01/13 04:38:33;;;;;;;23.90;13.27;;;;;;;-1.24;87.10;95202.44;5027413;28;20072;-65
2021/01/13 04:41:12;;;;;;;24.77;12.65;;;;;;;-1.06;87.32;95223.19;5027859;28;20372;-65
2021/01/13 04:43:43;;;;;;;34.92;12.70;;;;;;;-0.92;87.60;95242.00;5010125;28;20407;-67
2021/01/13 04:46:37;;;;;;;27.42;13.50;;;;;;;-1.22;87.84;95210.84;5027829;28;20112;-65
2021/01/13 04:49:17;;;;;;;38.35;13.25;;;;;;;-1.05;87.33;95256.91;5031253;28;20558;-66
2021/01/13 04:51:44;;;;;;;26.90;13.05;;;;;;;-0.97;87.74;95252.34;5013415;28;20049;-65
2021/01/13 04:54:15;;;;;;;33.17;12.25;;;;;;;-1.16;88.51;95251.69;5015452;28;20427;-66
2021/01/13 04:56:59;;;;;;;25.92;11.82;;;;;;;-1.19;88.23;95252.91;5031171;28;20050;-65
2021/01/13 04:59:47;;;;;;;26.42;12.20;;;;;;;-1.23;88.42;95259.59;5012944;28;20034;-65
2021/01/13 05:02:16;;;;;;;27.35;11.20;;;;;;;-1.49;88.41;95221.72;5030547;28;20053;-65
2021/01/13 05:05:03;;;;;;;30.90;11.50;;;;;;;-1.18;88.43;95267.56;5031104;28;20045;-65
2021/01/13 05:07:34;;;;;;;26.20;13.15;;;;;;;-1.33;88.40;95267.22;5031093;28;20047;-65
2021/01/13 05:10:06;;;;;;;24.23;12.02;;;;;;;-1.29;88.92;95267.56;5030836;28;20045;-65
2021/01/13 05:12:55;;;;;;;24.85;10.20;;;;;;;-1.24;88.20;95275.50;5030696;28;20028;-65
2021/01/13 05:15:25;;;;;;;23.15;12.65;;;;;;;-1.21;88.12;95285.50;5018430;28;20064;-65
2021/01/13 05:17:53;;;;;;;23.58;12.35;;;;;;;-1.16;87.89;95299.47;5032861;28;20025;-65
2021/01/13 05:20:35;;;;;;;20.52;11.30;;;;;;;-1.08;87.60;95298.31;5012814;28;20040;-65
2021/01/13 05:23:01;;;;;;;22.70;11.43;;;;;;;-0.96;87.37;95299.13;5030747;28;20041;-64
2021/01/13 05:25:37;;;;;;;21.27;10.85;;;;;;;-0.80;86.50;95300.25;5030510;28;20059;-63
2021/01/13 05:28:09;;;;;;;20.80;11.35;;;;;;;-0.85;86.98;95300.13;5012975;28;20103;-65
2021/01/13 05:30:37;;;;;;;17.58;9.57;;;;;;;-0.94;87.37;95296.28;5012852;28;20017;-65
2021/01/13 05:33:15;;;;;;;21.80;11.65;;;;;;;-0.80;86.45;95303.66;5032383;28;20036;-64
2021/01/13 05:35:44;;;;;;;21.38;9.75;;;;;;;-0.81;86.18;95304.69;5030559;28;20057;-64
2021/01/13 05:38:13;;;;;;;20.27;12.23;;;;;;;-0.80;86.65;95295.81;5030437;28;20095;-65
2021/01/13 05:40:46;;;;;;;24.27;11.82;;;;;;;-0.73;86.25;95316.59;5030451;28;20038;-65
2021/01/13 05:43:12;;;;;;;23.52;11.23;;;;;;;-0.74;85.83;95301.94;5030201;28;20041;-65
2021/01/13 05:45:40;;;;;;;25.80;11.73;;;;;;;-0.90;85.86;95286.97;5030207;28;20084;-65
2021/01/13 05:48:19;;;;;;;21.38;10.32;;;;;;;-0.81;86.21;95320.34;5032338;28;20021;-65
2021/01/13 05:50:46;;;;;;;25.40;10.48;;;;;;;-0.86;85.81;95290.72;5030768;28;20484;-66
2021/01/13 05:53:13;;;;;;;16.73;11.30;;;;;;;-0.69;85.45;95320.34;5012342;28;20042;-65
2021/01/13 05:55:46;;;;;;;23.38;12.98;;;;;;;-0.49;84.81;95319.19;5030165;28;20040;-65
2021/01/13 05:58:12;;;;;;;21.65;11.23;;;;;;;-0.89;86.05;95314.66;5029467;28;20103;-64
2021/01/13 06:00:37;;;;;;;22.95;13.02;;;;;;;-0.65;85.38;95321.47;5029591;28;20056;-65
2021/01/13 06:03:04;;;;;;;21.10;13.13;;;;;;;-0.66;85.33;95327.72;5013922;28;20025;-64
2021/01/13 06:05:32;;;;;;;23.98;12.68;;;;;;;-0.86;85.39;95316.84;5029764;28;20102;-65
2021/01/13 06:07:59;;;;;;;22.33;12.02;;;;;;;-1.06;85.85;95299.69;5030122;28;20071;-65
2021/01/13 06:10:28;;;;;;;23.77;11.98;;;;;;;-1.05;86.49;95322.16;5029602;28;20045;-65
2021/01/13 06:12:57;;;;;;;22.10;11.80;;;;;;;-1.06;86.39;95315.34;5029365;28;20115;-64
2021/01/13 06:15:24;;;;;;;24.83;13.10;;;;;;;-0.69;86.41;95351.69;5011952;28;20160;-65
2021/01/13 06:17:54;;;;;;;23.20;13.85;;;;;;;-0.61;85.08;95351.34;5013836;28;20037;-64
2021/01/13 06:20:29;;;;;;;26.05;14.82;;;;;;;-0.52;84.44;95323.03;5029597;28;20050;-65
2021/01/13 06:22:56;;;;;;;28.92;14.93;;;;;;;-0.03;83.83;95347.81;5029268;28;20042;-65
2021/01/13 06:25:29;;;;;;;26.45;14.88;;;;;;;-0.32;82.37;95312.22;5011819;28;20045;-66
2021/01/13 06:28:04;;;;;;;30.08;15.05;;;;;;;-0.42;84.14;95354.59;5029380;28;20049;-66
2021/01/13 06:30:41;;;;;;;23.77;13.40;;;;;;;-0.52;84.28;95346.56;5011413;28;20033;-64
2021/01/13 06:33:20;;;;;;;24.88;14.43;;;;;;;-0.59;84.61;95340.66;5031167;28;20037;-65
2021/01/13 06:35:55;;;;;;;26.15;14.90;;;;;;;-0.27;83.76;95357.53;5011445;28;20064;-66
2021/01/13 06:38:26;;;;;;;25.30;14.77;;;;;;;-0.36;84.06;95368.56;5011311;28;20599;-66
2021/01/13 06:40:59;;;;;;;28.13;14.40;;;;;;;-0.50;84.44;95362.81;5029368;28;20042;-64
2021/01/13 06:43:25;;;;;;;30.35;14.25;;;;;;;-0.49;83.77;95345.31;5029189;28;20034;-65
2021/01/13 06:45:50;;;;;;;25.67;14.10;;;;;;;-0.66;84.44;95322.50;5008132;28;20049;-65
2021/01/13 06:48:23;;;;;;;24.58;13.65;;;;;;;-0.60;83.03;95295.47;5011715;28;20044;-64
2021/01/13 06:50:49;;;;;;;23.45;13.73;;;;;;;-0.54;83.29;95328.50;5011751;28;20056;-63
2021/01/13 06:53:14;;;;;;;23.70;15.15;;;;;;;-0.08;83.18;95354.78;5012036;28;20047;-61
2021/01/13 06:55:42;;;;;;;36.20;14.82;;;;;;;-0.52;83.92;95347.34;5032220;28;20124;-64
2021/01/13 06:58:13;;;;;;;27.88;14.40;;;;;;;-0.62;84.29;95354.97;5031310;28;20065;-61
2021/01/13 07:00:39;;;;;;;28.15;13.80;;;;;;;-0.81;83.22;95291.63;5031668;28;20434;-62
2021/01/13 07:03:25;;;;;;;27.95;14.77;;;;;;;-0.23;83.13;95368.34;5033896;28;20068;-62
2021/01/13 07:05:54;;;;;;;26.55;13.68;;;;;;;-0.08;82.03;95360.00;5031074;28;20061;-61
2021/01/13 07:08:20;;;;;;;27.42;13.70;;;;;;;0.30;81.48;95375.13;5011006;28;20053;-61
2021/01/13 07:10:46;;;;;;;26.75;14.05;;;;;;;-0.08;81.86;95360.81;5011147;28;20041;-61
2021/01/13 07:13:13;;;;;;;23.85;12.93;;;;;;;0.11;81.38;95366.66;5029491;28;20033;-62
2021/01/13 07:15:39;;;;;;;26.33;13.98;;;;;;;0.29;80.98;95357.03;5007173;28;20447;-63
2021/01/13 07:18:06;;;;;;;21.70;14.15;;;;;;;-0.17;79.93;95251.59;4996886;28;20058;-62
2021/01/13 07:20:39;;;;;;;26.95;14.23;;;;;;;0.01;80.03;95336.91;5009625;28;20092;-63
2021/01/13 07:23:05;;;;;;;24.63;13.15;;;;;;;0.56;79.85;95375.59;5009880;28;20034;-63
2021/01/13 07:25:30;;;;;;;24.23;13.15;;;;;;;0.57;78.84;95370.13;5009742;28;20061;-61
2021/01/13 07:28:01;;;;;;;24.75;14.98;;;;;;;0.69;79.79;95375.31;5009514;28;20058;-62
2021/01/13 07:30:30;;;;;;;30.38;15.15;;;;;;;1.02;79.39;95372.72;5008271;28;20446;-62
2021/01/13 07:32:59;;;;;;;29.55;14.98;;;;;;;0.95;78.58;95356.34;5011565;28;20038;-64
2021/01/13 07:35:30;;;;;;;24.88;14.27;;;;;;;0.96;78.63;95360.56;5009913;28;20061;-63
2021/01/13 07:38:01;;;;;;;22.30;14.32;;;;;;;1.03;78.14;95358.59;5008511;28;20072;-63
2021/01/13 07:40:34;;;;;;;25.73;15.10;;;;;;;1.38;78.85;95365.38;5009558;28;20038;-62
2021/01/13 07:43:11;;;;;;;24.60;14.30;;;;;;;1.43;78.37;95354.19;5009429;28;20042;-63
2021/01/13 07:45:42;;;;;;;22.77;13.68;;;;;;;1.61;77.68;95350.50;5009726;28;20030;-63
2021/01/13 07:48:11;;;;;;;22.85;13.52;;;;;;;1.88;77.31;95361.88;5011708;28;20504;-63
2021/01/13 07:50:41;;;;;;;23.42;14.35;;;;;;;1.88;77.22;95342.72;5009506;28;20129;-63
2021/01/13 07:53:15;;;;;;;22.75;13.15;;;;;;;1.60;76.21;95362.81;5009493;28;20121;-63
2021/01/13 07:55:45;;;;;;;19.65;12.07;;;;;;;1.44;75.13;95359.19;5008361;28;20038;-63
2021/01/13 07:58:19;;;;;;;21.33;12.02;;;;;;;0.75;78.06;95362.06;5009243;28;20436;-63
2021/01/13 08:01:22;;;;;;;21.85;11.93;;;;;;;0.67;78.40;95367.69;5009635;28;20049;-63
2021/01/13 08:04:09;;;;;;;20.42;12.27;;;;;;;0.86;78.58;95365.63;5009439;28;20054;-62
2021/01/13 08:06:46;;;;;;;15.70;11.25;;;;;;;0.90;77.95;95369.38;5009570;28;20619;-64
2021/01/13 08:09:18;;;;;;;19.25;11.63;;;;;;;0.80;78.96;95374.44;5011364;28;20092;-63
2021/01/13 08:12:13;;;;;;;18.73;11.82;;;;;;;0.33;80.06;95379.09;5029547;28;20470;-63
2021/01/13 08:15:00;;;;;;;21.77;10.02;;;;;;;0.13;80.47;95371.66;5029311;28;20056;-62
2021/01/13 08:17:37;;;;;;;25.38;11.05;;;;;;;-0.07;81.38;95372.84;5029147;28;20130;-64
2021/01/13 08:20:37;;;;;;;26.95;11.75;;;;;;;0.04;80.76;95357.34;4997262;28;20046;-64
2021/01/13 08:23:11;;;;;;;18.55;10.70;;;;;;;-0.02;81.41;95383.41;5008324;28;20033;-62
2021/01/13 08:25:42;;;;;;;18.75;11.68;;;;;;;0.36;80.45;95373.38;5022612;28;20419;-63
2021/01/13 08:28:11;;;;;;;19.00;11.43;;;;;;;0.40;80.32;95384.97;5012891;28;20049;-63
2021/01/13 08:30:40;;;;;;;24.17;11.90;;;;;;;0.19;80.38;95355.03;5011786;28;20052;-64
2021/01/13 08:33:17;;;;;;;17.73;11.13;;;;;;;0.14;80.96;95386.31;5014831;28;20053;-63
2021/01/13 08:35:47;;;;;;;19.63;12.45;;;;;;;0.48;79.98;95401.13;5013550;28;20036;-64
2021/01/13 08:38:13;;;;;;;15.82;11.15;;;;;;;0.61;79.49;95407.09;5013031;28;20049;-63
2021/01/13 08:40:39;;;;;;;15.85;11.20;;;;;;;0.43;79.11;95377.47;5013117;28;20042;-64
2021/01/13 08:43:13;;;;;;;17.40;11.48;;;;;;;0.65;79.36;95408.22;5012723;28;20040;-63
2021/01/13 08:45:41;;;;;;;13.00;9.65;;;;;;;0.86;77.96;95399.69;5013031;28;20034;-63
2021/01/13 08:48:13;;;;;;;13.65;10.55;;;;;;;0.43;78.70;95364.38;5014933;28;20026;-64
2021/01/13 08:50:40;;;;;;;15.57;9.25;;;;;;;0.94;78.19;95412.41;5032181;28;20392;-63
2021/01/13 08:53:06;;;;;;;15.90;9.65;;;;;;;0.87;77.49;95410.94;5032159;28;20091;-63
2021/01/13 08:55:33;;;;;;;12.98;9.43;;;;;;;0.66;77.65;95399.31;5032506;28;20124;-62
2021/01/13 08:58:08;;;;;;;13.48;9.38;;;;;;;0.55;78.48;95421.13;5031621;28;20055;-64
2021/01/13 09:00:36;;;;;;;13.50;8.05;;;;;;;0.63;77.23;95420.75;5031944;28;20547;-63
2021/01/13 09:03:07;;;;;;;11.43;8.60;;;;;;;0.62;77.44;95409.50;5033549;28;20033;-63
2021/01/13 09:05:35;;;;;;;11.93;7.13;;;;;;;0.60;77.52;95419.38;5014588;28;20120;-63
2021/01/13 09:08:02;;;;;;;9.43;6.88;;;;;;;0.12;79.07;95402.25;5014467;28;20286;-66
2021/01/13 09:10:49;;;;;;;8.82;7.32;;;;;;;0.64;77.10;95424.94;5032206;28;20479;-66
2021/01/13 09:13:38;;;;;;;11.27;6.55;;;;;;;0.39;77.93;95426.06;5031840;28;20473;-64
2021/01/13 09:16:21;;;;;;;6.47;5.72;;;;;;;0.19;78.32;95423.84;5032120;28;20483;-64
2021/01/13 09:18:53;;;;;;;12.35;6.40;;;;;;;0.35;77.87;95424.94;5031047;28;20076;-66
2021/01/13 09:21:20;;;;;;;9.13;5.65;;;;;;;0.58;76.99;95410.97;5013881;28;20033;-64
2021/01/13 09:23:55;;;;;;;9.75;5.88;;;;;;;0.75;77.59;95424.09;5033647;28;20048;-64
2021/01/13 09:26:27;;;;;;;7.82;5.32;;;;;;;0.87;76.19;95417.00;5031801;28;20033;-64
2021/01/13 09:29:05;;;;;;;6.95;5.15;;;;;;;0.85;76.92;95429.53;5031093;28;20114;-63
2021/01/13 09:31:31;;;;;;;9.63;5.57;;;;;;;0.93;76.42;95437.00;5030711;28;20059;-61
2021/01/13 09:33:57;;;;;;;5.90;5.38;;;;;;;1.03;75.84;95428.53;5030969;28;20040;-70
2021/01/13 09:36:22;;;;;;;9.07;5.80;;;;;;;1.16;74.73;95437.88;5014075;28;20025;-67
2021/01/13 09:38:49;;;;;;;7.97;5.25;;;;;;;0.45;75.61;95396.34;5015746;28;20057;-64
2021/01/13 09:41:25;;;;;;;9.95;5.75;;;;;;;1.04;74.06;95394.22;5031518;28;20030;-66
2021/01/13 09:44:09;;;;;;;7.90;5.50;;;;;;;1.01;75.03;95435.81;5014191;28;20049;-64
2021/01/13 09:46:35;;;;;;;5.80;4.97;;;;;;;0.74;74.79;95412.03;5031857;28;20392;-64
2021/01/13 09:49:04;;;;;;;10.77;5.75;;;;;;;0.46;74.90;95426.75;5029995;28;20044;-67
2021/01/13 09:51:30;;;;;;;8.80;5.50;;;;;;;0.59;76.50;95451.03;5031213;28;20104;-66
2021/01/13 09:53:58;;;;;;;9.90;4.65;;;;;;;0.40;77.43;95442.56;5033516;28;20160;-67
2021/01/13 09:56:27;;;;;;;9.77;6.10;;;;;;;0.75;76.67;95434.56;5031558;28;20036;-64
2021/01/13 09:58:53;;;;;;;6.78;4.38;;;;;;;0.75;75.35;95432.75;5030720;28;20086;-63
2021/01/13 10:01:21;;;;;;;9.73;4.80;;;;;;;0.78;75.60;95449.81;5030805;28;20124;-64
2021/01/13 10:03:49;;;;;;;7.88;5.18;;;;;;;0.94;75.68;95437.78;5029308;28;20045;-65
2021/01/13 10:06:18;;;;;;;8.15;5.15;;;;;;;1.10;75.39;95454.56;5033218;28;20036;-63
2021/01/13 10:08:45;;;;;;;10.02;5.57;;;;;;;1.13;75.04;95456.72;5031550;28;20487;-63
2021/01/13 10:11:11;;;;;;;7.95;5.38;;;;;;;1.12;75.27;95460.34;5031022;28;20063;-66
2021/01/13 10:13:41;;;;;;;8.48;6.10;;;;;;;1.23;75.01;95456.91;5030941;28;20042;-65
2021/01/13 10:16:09;;;;;;;7.28;5.20;;;;;;;0.14;75.08;95303.41;5031106;28;20041;-64
2021/01/13 10:18:47;;;;;;;13.50;5.20;;;;;;;0.95;75.56;95455.88;5013111;28;20036;-63
2021/01/13 10:21:13;;;;;;;5.57;4.68;;;;;;;0.58;75.02;95416.22;5032746;28;20025;-64
2021/01/13 10:23:41;;;;;;;7.57;5.65;;;;;;;0.98;75.58;95442.34;5030936;28;20037;-64
2021/01/13 10:26:07;;;;;;;12.52;5.82;;;;;;;1.84;73.36;95463.06;5031185;28;20041;-62
2021/01/13 10:28:35;;;;;;;8.25;5.72;;;;;;;1.22;73.12;95411.53;5030111;28;20033;-64
2021/01/13 10:31:01;;;;;;;7.53;4.38;;;;;;;1.38;73.99;95440.59;5030971;28;20049;-64
2021/01/13 10:33:52;;;;;;;4.53;4.03;;;;;;;1.49;72.80;95455.47;5030294;28;20029;-65
2021/01/13 10:36:32;;;;;;;5.13;4.20;;;;;;;1.75;73.19;95457.44;5032738;28;20040;-65
2021/01/13 10:39:07;;;;;;;5.75;4.05;;;;;;;1.44;73.40;95458.81;5012828;28;20041;-65
2021/01/13 10:41:33;;;;;;;8.80;3.95;;;;;;;1.16;73.76;95458.84;5030370;28;20045;-63
2021/01/13 10:44:04;;;;;;;5.13;3.75;;;;;;;0.96;74.22;95412.94;5030553;28;20458;-63
2021/01/13 10:46:52;;;;;;;4.43;2.33;;;;;;;0.88;73.80;95465.72;5030325;28;20491;-62
2021/01/13 10:49:23;;;;;;;6.82;4.07;;;;;;;1.09;73.29;95453.78;5030153;28;20717;-63
2021/01/13 10:51:50;;;;;;;6.80;2.70;;;;;;;0.46;74.42;95395.34;5012176;28;20391;-64
2021/01/13 10:54:18;;;;;;;6.82;3.42;;;;;;;0.71;74.01;95392.34;5032286;28;20079;-62
2021/01/13 10:56:45;;;;;;;4.70;3.00;;;;;;;0.89;74.13;95437.72;5030777;28;20124;-66
2021/01/13 10:59:16;;;;;;;5.68;4.22;;;;;;;0.81;74.00;95420.53;5028727;28;20043;-66
2021/01/13 11:01:48;;;;;;;3.05;2.38;;;;;;;0.17;74.60;95410.22;5012043;28;20041;-65
2021/01/13 11:04:27;;;;;;;9.35;3.30;;;;;;;0.57;74.15;95427.72;5029221;28;20039;-64
2021/01/13 11:06:58;;;;;;;4.63;3.35;;;;;;;0.18;74.29;95382.22;5029609;28;20052;-63
2021/01/13 11:09:24;;;;;;;7.78;3.05;;;;;;;0.57;75.23;95440.00;5029843;28;20498;-63
2021/01/13 11:11:50;;;;;;;5.68;3.80;;;;;;;0.97;73.20;95438.13;5031634;28;20022;-63
2021/01/13 11:14:27;;;;;;;7.30;3.67;;;;;;;0.92;73.69;95424.13;5030018;28;20040;-65
2021/01/13 11:17:09;;;;;;;5.70;3.35;;;;;;;0.86;73.37;95432.94;5030074;28;20095;-64
2021/01/13 11:19:35;;;;;;;9.43;3.63;;;;;;;1.18;71.59;95402.56;5012177;28;20047;-62
2021/01/13 11:22:00;;;;;;;5.57;2.92;;;;;;;0.42;72.91;95383.72;5029324;28;20045;-64
2021/01/13 11:24:35;;;;;;;4.80;3.10;;;;;;;0.87;71.86;95411.75;5029591;28;20037;-63
2021/01/13 11:27:03;;;;;;;6.28;3.05;;;;;;;1.22;71.57;95411.53;5031684;28;20029;-64
2021/01/13 11:29:32;;;;;;;2.15;1.80;;;;;;;0.97;70.93;95411.94;5029191;28;20087;-64
2021/01/13 11:31:59;;;;;;;5.07;3.05;;;;;;;1.13;70.57;95414.81;5029439;28;20045;-61
2021/01/13 11:34:26;;;;;;;5.63;2.67;;;;;;;1.06;70.42;95408.91;5029499;28;20067;-62
2021/01/13 11:37:06;;;;;;;4.38;2.95;;;;;;;1.12;70.01;95410.56;5029587;28;20773;-62
2021/01/13 11:39:32;;;;;;;2.50;1.73;;;;;;;0.77;70.13;95386.19;5011431;28;20041;-63
2021/01/13 11:42:29;;;;;;;5.20;3.05;;;;;;;1.06;70.37;95372.22;5031288;28;20021;-63
2021/01/13 11:45:16;;;;;;;5.00;3.22;;;;;;;1.26;69.89;95393.50;5012259;28;20095;-63